Time;durP1;ratioP1;P1;durP2;ratioP2;P2;SDS_P1;SDS_P2;PMS_P1;PMS_P2;Temp;Humidity;BMP_temperature;BMP_pressure;BME280_temperature;BME280_humidity;BME280_pressure;Samples;Min_cycle;Max_cycle;Signal;HPM_P1;HPM_P2
2022/11/10 00:00:43;;;;;;;;;6.75;3.25;;;;;20.85;44.69;101586.56;5040608;28;45350;-55
2022/11/10 00:03:09;;;;;;;;;3.25;3.25;;;;;20.85;44.82;101584.78;5040757;28;45300;-55
2022/11/10 00:05:36;;;;;;;;;3.00;3.00;;;;;20.83;44.56;101584.03;5057210;28;45521;-55
2022/11/10 00:08:06;;;;;;;;;3.50;2.50;;;;;20.85;44.47;101589.22;5059419;28;46605;-55
2022/11/10 00:10:32;;;;;;;;;3.00;2.25;;;;;20.83;44.79;101597.19;5043323;28;45287;-55
2022/11/10 00:13:01;;;;;;;;;3.00;3.00;;;;;20.83;44.48;101596.31;5037845;28;45386;-55
2022/11/10 00:18:10;;;;;;;;;3.75;2.50;;;;;20.82;44.90;101598.13;5037503;28;45311;-55
2022/11/10 00:20:36;;;;;;;;;3.00;3.00;;;;;20.82;44.43;101606.03;5040915;28;72295;-54
2022/11/10 00:23:02;;;;;;;;;3.25;3.25;;;;;20.83;44.43;101606.88;5041096;28;45390;-54
2022/11/10 00:25:27;;;;;;;;;3.50;3.50;;;;;20.82;44.53;101613.06;5039194;28;45510;-54
2022/11/10 00:27:53;;;;;;;;;2.00;2.00;;;;;20.83;44.56;101614.75;5036377;28;45905;-53
2022/11/10 00:30:18;;;;;;;;;4.00;4.00;;;;;20.82;44.30;101623.59;5037097;28;48909;-54
2022/11/10 00:32:45;;;;;;;;;2.67;2.00;;;;;20.82;44.70;101620.97;5037201;28;53700;-54
2022/11/10 00:35:11;;;;;;;;;4.50;4.00;;;;;20.81;44.60;101630.66;5037507;28;45562;-54
2022/11/10 00:37:36;;;;;;;;;8.00;3.33;;;;;20.82;44.83;101628.84;5036364;28;61252;-55
2022/11/10 00:40:02;;;;;;;;;4.25;4.25;;;;;20.80;44.70;101628.06;5036965;28;45313;-53
2022/11/10 00:42:27;;;;;;;;;4.00;4.00;;;;;20.79;44.51;101629.84;5036951;28;45314;-54
2022/11/10 00:44:52;;;;;;;;;4.50;4.00;;;;;20.79;44.26;101631.63;5035442;28;45427;-54
2022/11/10 00:47:17;;;;;;;;;4.00;4.00;;;;;20.79;44.83;101632.50;5036262;28;63724;-53
2022/11/10 00:49:43;;;;;;;;;5.00;5.00;;;;;20.79;44.22;101626.34;5036639;28;59196;-53
2022/11/10 00:52:08;;;;;;;;;4.50;4.00;;;;;20.78;44.40;101632.56;5036842;28;47702;-54
2022/11/10 00:54:33;;;;;;;;;6.00;5.00;;;;;20.78;44.53;101632.56;5037417;28;45334;-55
2022/11/10 00:56:59;;;;;;;;;4.25;4.25;;;;;20.78;44.14;101635.22;5040149;28;45323;-53
2022/11/10 00:59:24;;;;;;;;;4.25;4.25;;;;;20.75;44.45;101632.69;5041688;28;55357;-54
2022/11/10 01:01:49;;;;;;;;;5.00;4.67;;;;;20.77;44.52;101644.03;5037592;28;55552;-54
2022/11/10 01:04:17;;;;;;;;;4.25;3.00;;;;;20.78;44.39;101653.66;5037468;28;45613;-54
2022/11/10 01:06:43;;;;;;;;;5.00;4.25;;;;;20.74;44.72;101646.75;5037508;28;46244;-54
2022/11/10 01:09:08;;;;;;;;;3.75;3.50;;;;;20.77;44.34;101649.28;5047271;28;45628;-53
2022/11/10 01:11:33;;;;;;;;;4.33;4.33;;;;;20.75;44.72;101654.59;5061897;28;57112;-54
2022/11/10 01:13:58;;;;;;;;;3.00;3.00;;;;;20.76;44.46;101651.06;5040743;28;48128;-54
2022/11/10 01:16:28;;;;;;;;;4.67;4.00;;;;;20.76;44.63;101658.13;5041643;28;65500;-54
2022/11/10 01:18:58;;;;;;;;;3.75;3.25;;;;;20.76;44.12;101652.84;5041992;28;45801;-55
2022/11/10 01:21:24;;;;;;;;;5.00;5.00;;;;;20.76;44.59;101652.84;5039858;28;45458;-53
2022/11/10 01:23:50;;;;;;;;;6.25;5.00;;;;;20.74;44.36;101655.53;5037276;28;45501;-55
2022/11/10 01:26:16;;;;;;;;;4.25;4.25;;;;;20.74;44.55;101655.53;5035764;28;45460;-55
2022/11/10 01:28:42;;;;;;;;;3.75;3.75;;;;;20.75;44.48;101664.31;5036891;28;45346;-56
2022/11/10 01:31:10;;;;;;;;;4.75;4.00;;;;;20.74;44.43;101659.94;5038006;28;45535;-56
2022/11/10 01:33:36;;;;;;;;;4.00;4.00;;;;;20.73;44.66;101669.59;5037410;28;45462;-54
2022/11/10 01:36:02;;;;;;;;;3.00;3.00;;;;;20.72;44.26;101667.03;5038040;28;46565;-54
2022/11/10 01:38:30;;;;;;;;;4.00;4.00;;;;;20.72;44.12;101664.41;5049373;28;45912;-55
2022/11/10 01:40:56;;;;;;;;;5.00;5.00;;;;;20.71;44.06;101666.19;5052750;28;45243;-54
2022/11/10 01:43:22;;;;;;;;;7.00;4.50;;;;;20.70;44.51;101670.59;5037670;28;45313;-55
2022/11/10 01:45:58;;;;;;;;;4.00;4.00;;;;;20.72;44.56;101675.81;5037902;28;47216;-55
2022/11/10 01:48:31;;;;;;;;;6.00;4.00;;;;;20.72;44.46;101675.81;5062842;28;45243;-54
2022/11/10 01:51:05;;;;;;;;;7.75;5.00;;;;;20.68;44.24;101675.06;5055167;28;44753;-54
2022/11/10 01:53:34;;;;;;;;;4.75;4.75;;;;;20.70;44.70;101681.13;5036909;28;45355;-55
2022/11/10 01:55:59;;;;;;;;;4.75;4.75;;;;;20.70;44.43;101685.56;5036156;28;46258;-54
2022/11/10 01:58:31;;;;;;;;;6.50;4.00;;;;;20.69;44.30;101683.84;5035710;28;45343;-54
2022/11/10 02:00:56;;;;;;;;;7.50;4.00;;;;;20.68;44.46;101684.75;5036175;28;46157;-55
2022/11/10 02:03:45;;;;;;;;;4.50;3.25;;;;;20.68;44.51;101693.50;5039140;28;45906;-53
2022/11/10 02:06:12;;;;;;;;;4.00;4.00;;;;;20.68;44.22;101692.66;5039065;28;46899;-55
2022/11/10 02:08:39;;;;;;;;;4.00;4.00;;;;;20.68;44.42;101700.56;5035753;28;45258;-55
2022/11/10 02:11:05;;;;;;;;;5.00;5.00;;;;;20.68;44.59;101697.94;5035794;28;45386;-55
2022/11/10 02:13:30;;;;;;;;;5.50;4.00;;;;;20.66;44.40;101700.63;5036071;28;45478;-54
2022/11/10 02:15:56;;;;;;;;;5.00;3.25;;;;;20.66;44.72;101703.25;5035528;28;46744;-55
2022/11/10 02:18:21;;;;;;;;;3.00;1.50;;;;;20.66;44.09;101705.91;5035853;28;52530;-54
2022/11/10 02:20:46;;;;;;;;;4.50;3.00;;;;;20.66;44.02;101705.91;5036490;28;45474;-55
2022/11/10 02:23:30;;;;;;;;;6.00;4.25;;;;;20.65;44.40;101709.47;5049273;28;45584;-55
2022/11/10 02:25:56;;;;;;;;;4.00;4.00;;;;;20.64;44.53;101702.47;5051308;28;46098;-54
2022/11/10 02:28:23;;;;;;;;;4.50;4.50;;;;;20.64;44.44;101696.31;5042179;28;45387;-54
2022/11/10 02:30:48;;;;;;;;;4.50;2.75;;;;;20.65;44.63;101696.28;5055124;28;45417;-54
2022/11/10 02:33:16;;;;;;;;;3.75;3.00;;;;;20.65;44.25;101701.56;5050487;28;45742;-54
2022/11/10 02:35:42;;;;;;;;;5.25;4.00;;;;;20.65;44.50;101693.66;5046859;28;46957;-54
2022/11/10 02:38:07;;;;;;;;;5.50;4.25;;;;;20.63;44.06;101698.13;5051404;28;45219;-54
2022/11/10 02:40:33;;;;;;;;;5.50;4.00;;;;;20.64;44.12;101698.97;5039199;28;45276;-54
2022/11/10 02:42:58;;;;;;;;;4.50;3.50;;;;;20.62;43.93;101695.53;5038775;28;45597;-54
2022/11/10 02:45:23;;;;;;;;;5.33;4.00;;;;;20.64;44.15;101706.88;5038570;28;59710;-54
2022/11/10 02:47:49;;;;;;;;;5.75;5.75;;;;;20.64;44.44;101707.75;5038954;28;45280;-54
2022/11/10 02:50:14;;;;;;;;;5.75;4.00;;;;;20.64;44.20;101707.75;5038951;28;45598;-53
2022/11/10 02:52:40;;;;;;;;;5.00;5.00;;;;;20.63;44.44;101706.03;5039075;28;45362;-54
2022/11/10 02:55:05;;;;;;;;;4.00;4.00;;;;;20.61;44.43;101707.84;5038582;28;47000;-55
2022/11/10 02:57:31;;;;;;;;;3.00;3.00;;;;;20.61;44.64;101704.38;5037373;28;45462;-53
2022/11/10 02:59:56;;;;;;;;;4.25;4.00;;;;;20.63;44.19;101711.28;5038651;28;45381;-54
2022/11/10 03:02:21;;;;;;;;;5.25;5.25;;;;;20.60;44.14;101716.69;5039190;28;45291;-54
2022/11/10 03:04:47;;;;;;;;;5.50;4.25;;;;;20.61;44.19;101713.13;5038729;28;46973;-55
2022/11/10 03:07:12;;;;;;;;;4.00;4.00;;;;;20.61;44.14;101717.56;5049800;28;55172;-55
2022/11/10 03:09:37;;;;;;;;;5.00;3.50;;;;;20.59;44.58;101712.31;5048739;28;45280;-54
2022/11/10 03:12:03;;;;;;;;;4.00;4.00;;;;;20.59;44.49;101712.31;5054043;28;45312;-56
2022/11/10 03:14:28;;;;;;;;;6.00;4.00;;;;;20.58;44.64;101710.63;5038094;28;52066;-53
2022/11/10 03:16:53;;;;;;;;;4.75;4.50;;;;;20.59;44.67;101714.97;5038323;28;49639;-55
2022/11/10 03:19:18;;;;;;;;;5.50;4.25;;;;;20.59;44.27;101714.97;5038477;28;45232;-55
2022/11/10 03:21:44;;;;;;;;;6.00;4.67;;;;;20.58;44.62;101718.50;5037884;28;56801;-56
2022/11/10 03:24:09;;;;;;;;;6.00;6.00;;;;;20.57;44.43;101716.78;5038451;28;45420;-55
2022/11/10 03:26:34;;;;;;;;;5.00;5.00;;;;;20.55;44.09;101716.88;5039399;28;45259;-54
2022/11/10 03:29:00;;;;;;;;;6.00;5.00;;;;;20.55;44.00;101708.97;5038387;28;45236;-54
2022/11/10 03:31:25;;;;;;;;;4.00;4.00;;;;;20.57;44.14;101719.44;5039959;28;45262;-55
2022/11/10 03:33:50;;;;;;;;;5.00;4.00;;;;;20.58;44.17;101723.78;5040618;28;47164;-55
2022/11/10 03:36:16;;;;;;;;;3.00;3.00;;;;;20.61;44.34;101718.41;5045636;28;51572;-55
2022/11/10 03:38:41;;;;;;;;;6.25;4.00;;;;;20.60;44.32;101719.31;5044865;28;45524;-55
2022/11/10 03:41:06;;;;;;;;;3.33;3.33;;;;;20.60;44.61;101723.75;5046642;28;48912;-55
2022/11/10 03:43:31;;;;;;;;;4.25;4.25;;;;;20.60;44.16;101726.38;5041468;28;46028;-55
2022/11/10 03:45:57;;;;;;;;;4.00;4.00;;;;;20.59;44.44;101730.75;5037433;28;67771;-55
2022/11/10 03:48:22;;;;;;;;;4.00;4.00;;;;;20.60;44.39;101739.53;5037169;28;48593;-53
2022/11/10 03:50:47;;;;;;;;;5.50;4.00;;;;;20.60;43.94;101736.91;5037855;28;46099;-54
2022/11/10 03:53:13;;;;;;;;;6.00;3.00;;;;;20.55;44.59;101730.03;5037689;28;50510;-55
2022/11/10 03:55:38;;;;;;;;;5.75;5.00;;;;;20.58;44.33;101733.47;5030959;28;55110;-54
2022/11/10 03:58:03;;;;;;;;;3.67;3.00;;;;;20.55;44.63;101734.47;5047816;28;56348;-54
2022/11/10 04:00:29;;;;;;;;;3.75;3.75;;;;;20.55;44.21;101739.72;5038099;28;45257;-54
2022/11/10 04:02:54;;;;;;;;;5.00;5.00;;;;;20.57;43.99;101752.81;5037580;28;45240;-54
2022/11/10 04:10:55;;;;;;;;;5.00;3.50;;;;;20.54;44.45;101749.38;5038294;28;45437;-54
2022/11/10 04:16:05;;;;;;;;;4.00;4.00;;;;;20.52;44.20;101745.97;5042278;28;45768;-55
2022/11/10 04:18:30;;;;;;;;;4.00;4.00;;;;;20.54;44.04;101745.91;5038541;28;45304;-58
2022/11/10 04:21:00;;;;;;;;;4.75;3.00;;;;;20.52;44.17;101739.84;5061012;28;44817;-53
2022/11/10 04:23:35;;;;;;;;;4.00;3.50;;;;;20.52;44.01;101745.97;5060653;28;44989;-57
2022/11/10 04:28:51;;;;;;;;;4.00;4.00;;;;;20.51;44.28;101757.41;5037940;28;45468;-54
2022/11/10 04:31:18;;;;;;;;;4.00;4.00;;;;;20.51;44.09;101761.84;5037439;28;45572;-54
2022/11/10 04:33:44;;;;;;;;;3.75;3.75;;;;;20.49;44.49;101761.91;5037285;28;46038;-55
2022/11/10 04:36:12;;;;;;;;;3.00;3.00;;;;;20.50;44.26;101770.66;5037215;28;45454;-54
2022/11/10 04:38:38;;;;;;;;;3.00;3.00;;;;;20.48;44.16;101776.00;5037498;28;45423;-55
2022/11/10 04:41:04;;;;;;;;;5.25;4.25;;;;;20.50;43.96;101781.19;5040110;28;45446;-53
2022/11/10 04:43:30;;;;;;;;;4.00;3.25;;;;;20.48;44.29;101776.00;5053778;28;45351;-53
2022/11/10 04:45:56;;;;;;;;;4.00;4.00;;;;;20.49;44.26;101774.19;5037122;28;45276;-55
2022/11/10 04:48:21;;;;;;;;;4.00;4.00;;;;;20.48;44.35;101785.66;5049221;28;45439;-55
2022/11/10 04:50:47;;;;;;;;;4.50;4.50;;;;;20.46;44.30;101784.84;5052449;28;45350;-53
2022/11/10 04:53:12;;;;;;;;;2.50;2.50;;;;;20.47;44.48;101783.94;5038504;28;46537;-53
2022/11/10 04:55:41;;;;;;;;;4.00;4.00;;;;;20.48;44.20;101785.66;5042572;28;45297;-55
2022/11/10 04:58:07;;;;;;;;;4.75;4.50;;;;;20.47;44.19;101786.56;5038097;28;45441;-54
2022/11/10 05:00:33;;;;;;;;;6.00;4.00;;;;;20.47;44.30;101791.84;5038446;28;45557;-54
2022/11/10 05:03:00;;;;;;;;;4.00;4.00;;;;;20.46;44.06;101791.00;5037614;28;47084;-54
2022/11/10 05:05:26;;;;;;;;;3.50;3.00;;;;;20.47;44.08;101799.72;5038060;28;45382;-55
2022/11/10 05:07:51;;;;;;;;;3.75;3.75;;;;;20.46;44.60;101806.78;5040420;28;45314;-54
2022/11/10 05:10:17;;;;;;;;;6.00;6.00;;;;;20.45;44.44;101812.13;5042371;28;45573;-54
2022/11/10 05:12:43;;;;;;;;;4.00;4.00;;;;;20.46;44.39;101816.44;5046169;28;52036;-54
2022/11/10 05:15:09;;;;;;;;;3.00;3.00;;;;;20.46;44.22;101821.72;5046448;28;45319;-54
2022/11/10 05:17:34;;;;;;;;;5.00;4.25;;;;;20.45;43.95;101825.28;5054433;28;45339;-53
2022/11/10 05:19:59;;;;;;;;;5.00;4.50;;;;;20.45;44.51;101828.78;5042222;28;45580;-54
2022/11/10 05:22:25;;;;;;;;;5.25;4.00;;;;;20.45;44.36;101831.41;5045304;28;46038;-53
2022/11/10 05:24:50;;;;;;;;;5.50;3.25;;;;;20.44;44.46;101823.56;5056704;28;45284;-53
2022/11/10 05:27:16;;;;;;;;;5.25;3.25;;;;;20.44;44.36;101820.94;5051996;28;45355;-54
2022/11/10 05:29:41;;;;;;;;;3.75;3.75;;;;;20.43;44.02;101832.38;5042821;28;45387;-54
2022/11/10 05:32:07;;;;;;;;;3.50;3.50;;;;;20.44;44.04;101839.38;5041278;28;46004;-55
2022/11/10 05:34:32;;;;;;;;;4.00;3.50;;;;;20.43;44.22;101835.88;5040836;28;45513;-54
2022/11/10 05:36:58;;;;;;;;;5.00;4.00;;;;;20.43;44.44;101845.56;5038130;28;45435;-54
2022/11/10 05:39:23;;;;;;;;;4.00;4.00;;;;;20.42;44.49;101843.84;5039333;28;45414;-56
2022/11/10 05:41:48;;;;;;;;;5.00;3.00;;;;;20.43;44.10;101842.91;5038727;28;46248;-54
2022/11/10 05:44:14;;;;;;;;;4.75;3.25;;;;;20.38;44.08;101846.56;5037002;28;45730;-55
2022/11/10 05:46:39;;;;;;;;;4.75;4.75;;;;;20.41;44.00;101853.50;5039095;28;45420;-54
2022/11/10 05:49:04;;;;;;;;;3.67;3.67;;;;;20.41;43.99;101850.84;5038995;28;53618;-53
2022/11/10 05:51:29;;;;;;;;;5.00;5.00;;;;;20.40;43.84;101846.50;5037483;28;48463;-53
2022/11/10 05:53:55;;;;;;;;;5.00;5.00;;;;;20.38;44.05;101854.47;5039038;28;53581;-50
2022/11/10 05:56:20;;;;;;;;;5.25;4.75;;;;;20.37;44.00;101858.03;5037942;28;45789;-52
2022/11/10 05:58:45;;;;;;;;;4.00;4.00;;;;;20.35;43.95;101854.59;5036595;28;46011;-54
2022/11/10 06:01:11;;;;;;;;;4.00;4.00;;;;;20.35;44.08;101851.09;5037057;28;46038;-54
2022/11/10 06:03:36;;;;;;;;;6.00;3.75;;;;;20.33;44.03;101859.06;5037011;28;45268;-51
2022/11/10 06:06:02;;;;;;;;;3.50;3.50;;;;;20.35;44.18;101861.66;5037205;28;45324;-53
2022/11/10 06:08:27;;;;;;;;;6.00;4.00;;;;;20.34;44.00;101860.75;5037470;28;45194;-50
2022/11/10 06:10:53;;;;;;;;;3.00;3.00;;;;;20.32;44.12;101854.72;5050538;28;46221;-53
2022/11/10 06:13:19;;;;;;;;;5.50;5.00;;;;;20.34;44.29;101859.91;5056609;28;45210;-53
2022/11/10 06:15:44;;;;;;;;;5.00;5.00;;;;;20.35;44.34;101862.50;5052002;28;45277;-51
2022/11/10 06:18:09;;;;;;;;;5.25;3.75;;;;;20.36;44.41;101866.84;5041261;28;45432;-52
2022/11/10 06:20:35;;;;;;;;;6.00;5.00;;;;;20.39;44.47;101869.38;5040352;28;47857;-52
2022/11/10 06:23:06;;;;;;;;;6.00;5.00;;;;;20.43;44.07;101869.25;5041032;28;45453;-54
2022/11/10 06:25:34;;;;;;;;;3.00;3.00;;;;;20.43;44.19;101867.47;5046171;28;45240;-52
2022/11/10 06:28:00;;;;;;;;;5.00;4.25;;;;;20.47;43.79;101862.94;5042291;28;45248;-52
2022/11/10 06:30:26;;;;;;;;;6.25;4.25;;;;;20.52;43.98;101868.91;5040200;28;46427;-50
2022/11/10 06:32:52;;;;;;;;;4.00;3.50;;;;;20.54;44.06;101869.69;5042625;28;45378;-51
2022/11/10 06:35:18;;;;;;;;;6.00;4.25;;;;;20.54;44.21;101877.59;5056617;28;45449;-53
2022/11/10 06:37:43;;;;;;;;;5.00;4.00;;;;;20.59;44.09;101886.16;5041565;28;45395;-51
2022/11/10 06:40:10;;;;;;;;;5.25;4.75;;;;;20.58;43.88;101883.59;5040614;28;46907;-52
2022/11/10 06:42:35;;;;;;;;;5.75;4.25;;;;;20.61;44.22;101891.38;5039340;28;46095;-51
2022/11/10 06:45:01;;;;;;;;;5.25;5.00;;;;;20.61;44.01;101902.78;5040884;28;45242;-53
2022/11/10 06:47:26;;;;;;;;;5.25;4.25;;;;;20.62;43.86;101908.88;5045860;28;45596;-53
2022/11/10 06:49:52;;;;;;;;;4.00;4.00;;;;;20.61;44.10;101907.19;5049041;28;45314;-53
2022/11/10 06:52:17;;;;;;;;;5.25;4.75;;;;;20.61;44.19;101908.03;5039223;28;45292;-52
2022/11/10 06:54:43;;;;;;;;;5.00;4.00;;;;;20.62;44.05;101915.03;5039264;28;45213;-53
2022/11/10 06:57:08;;;;;;;;;4.33;4.33;;;;;20.61;43.82;101913.31;5045339;28;54165;-53
2022/11/10 06:59:33;;;;;;;;;5.00;5.00;;;;;20.60;43.87;101916.00;5043427;28;46207;-53
2022/11/10 07:01:59;;;;;;;;;4.75;3.25;;;;;20.59;44.15;101925.66;5040261;28;45220;-53
2022/11/10 07:04:24;;;;;;;;;4.75;4.00;;;;;20.54;43.84;101923.22;5038924;28;45443;-53
2022/11/10 07:06:50;;;;;;;;;7.00;4.50;;;;;20.54;43.82;101938.19;5038982;28;45573;-51
2022/11/10 07:09:15;;;;;;;;;5.00;4.25;;;;;20.50;43.98;101937.44;5045484;28;46096;-51
2022/11/10 07:11:41;;;;;;;;;6.00;6.00;;;;;20.50;44.14;101947.97;5043315;28;45764;-53
2022/11/10 07:14:07;;;;;;;;;4.25;4.25;;;;;20.48;44.29;101951.56;5040181;28;45821;-53
2022/11/10 07:16:32;;;;;;;;;4.00;4.00;;;;;20.43;44.16;101940.34;5039490;28;45603;-52
2022/11/10 07:18:57;;;;;;;;;6.75;4.50;;;;;20.44;44.25;101949.97;5039432;28;45490;-53
2022/11/10 07:21:23;;;;;;;;;4.00;3.00;;;;;20.42;44.23;101960.53;5041431;28;45321;-53
2022/11/10 07:23:48;;;;;;;;;5.00;5.00;;;;;20.42;43.77;101959.69;5038506;28;45308;-52
2022/11/10 07:26:13;;;;;;;;;4.00;4.00;;;;;20.40;43.90;101957.09;5038733;28;45476;-53
2022/11/10 07:28:39;;;;;;;;;3.25;3.25;;;;;20.38;44.43;101967.69;5040805;28;47439;-53
2022/11/10 07:31:04;;;;;;;;;6.00;4.25;;;;;20.38;44.31;101965.06;5044476;28;45453;-51
2022/11/10 07:33:29;;;;;;;;;4.00;3.00;;;;;20.38;43.88;101965.06;5038892;28;45374;-52
2022/11/10 07:35:57;;;;;;;;;4.00;4.00;;;;;20.33;44.28;101966.16;5038552;28;45216;-53
2022/11/10 07:38:22;;;;;;;;;4.50;4.50;;;;;20.35;43.83;101986.22;5038456;28;46154;-52
2022/11/10 07:40:54;;;;;;;;;6.00;4.00;;;;;20.36;44.01;101990.59;5038217;28;45413;-51
2022/11/10 07:43:22;;;;;;;;;5.75;5.00;;;;;20.33;44.15;101993.34;5041475;28;45375;-53
2022/11/10 07:45:51;;;;;;;;;4.25;4.25;;;;;20.34;43.91;102000.31;5047251;28;45268;-53
2022/11/10 07:48:18;;;;;;;;;7.25;6.00;;;;;20.32;44.19;101996.91;5040094;28;46388;-53
2022/11/10 07:50:44;;;;;;;;;3.25;3.25;;;;;20.33;43.83;102006.53;5040065;28;45494;-52
2022/11/10 07:53:12;;;;;;;;;4.50;4.50;;;;;20.32;43.89;102012.69;5050291;28;45343;-52
2022/11/10 07:55:39;;;;;;;;;6.00;4.00;;;;;20.31;43.88;102010.97;5058714;28;45235;-52
2022/11/10 07:58:06;;;;;;;;;6.75;4.00;;;;;20.32;44.02;102022.34;5046766;28;46770;-53
2022/11/10 08:00:32;;;;;;;;;5.75;3.50;;;;;20.30;43.99;102025.06;5055478;28;45323;-52
2022/11/10 08:03:05;;;;;;;;;6.25;5.00;;;;;20.30;43.86;102030.31;5050943;28;45338;-53
2022/11/10 08:05:31;;;;;;;;;4.00;4.00;;;;;20.30;43.90;102045.22;5041491;28;45435;-53
2022/11/10 08:07:57;;;;;;;;;4.50;4.00;;;;;20.29;44.07;102043.50;5041000;28;46320;-53
2022/11/10 08:10:22;;;;;;;;;5.00;5.00;;;;;20.29;44.01;102057.56;5062874;28;44789;-53
2022/11/10 08:12:56;;;;;;;;;6.50;3.75;;;;;20.28;43.90;102061.09;5063026;28;61639;-52
2022/11/10 08:15:23;;;;;;;;;5.25;5.25;;;;;20.29;43.76;102064.56;5044647;28;45347;-52
2022/11/10 08:17:49;;;;;;;;;3.75;3.75;;;;;20.29;44.00;102075.97;5045086;28;45043;-53
2022/11/10 08:20:15;;;;;;;;;4.00;4.00;;;;;20.28;44.20;102076.91;5038799;28;49415;-53
2022/11/10 08:22:41;;;;;;;;;6.00;4.50;;;;;20.26;44.22;102076.06;5037837;28;45319;-53
2022/11/10 08:25:07;;;;;;;;;3.50;3.50;;;;;20.27;43.88;102076.97;5037651;28;45254;-55
2022/11/10 08:27:32;;;;;;;;;3.75;3.00;;;;;20.28;44.14;102081.31;5037808;28;45448;-53
2022/11/10 08:29:57;;;;;;;;;4.75;4.75;;;;;20.27;44.18;102079.59;5038643;28;50812;-56
2022/11/10 08:32:23;;;;;;;;;5.33;4.00;;;;;20.27;44.21;102082.22;5037943;28;49938;-52
2022/11/10 19:40:57;;;;;;;;;4.75;4.75;;;;;21.76;45.16;102395.13;5058348;28;45313;-54
2022/11/10 19:43:22;;;;;;;;;5.00;5.00;;;;;21.76;44.95;102389.00;5059850;28;45317;-55
2022/11/10 19:45:47;;;;;;;;;8.00;5.00;;;;;21.76;44.88;102391.63;5069025;28;45161;-53
2022/11/10 19:48:13;;;;;;;;;7.00;7.00;;;;;21.77;45.04;102398.63;5071116;28;69271;-55
2022/11/10 19:50:38;;;;;;;;;4.00;4.00;;;;;21.77;45.10;102396.00;5062754;28;45244;-55
2022/11/10 19:53:03;;;;;;;;;6.00;4.75;;;;;21.76;44.89;102392.47;5083710;28;44662;-47
2022/11/10 19:55:32;;;;;;;;;5.00;5.00;;;;;21.75;44.60;102390.75;5079264;28;44835;-54
2022/11/10 19:57:58;;;;;;;;;4.25;4.25;;;;;21.76;44.78;102399.56;5065818;28;45363;-55
2022/11/10 20:00:24;;;;;;;;;6.50;5.00;;;;;21.76;44.89;102397.75;5072299;28;45137;-52
2022/11/10 20:02:49;;;;;;;;;5.00;5.00;;;;;21.76;44.89;102399.56;5062630;28;45352;-53
2022/11/10 20:05:17;;;;;;;;;6.75;5.00;;;;;21.76;44.78;102402.19;5058217;28;45488;-53
2022/11/10 20:10:29;;;;;;;;;6.00;4.25;;;;;21.75;44.71;102397.81;5058360;28;45196;-55
2022/11/10 20:12:54;;;;;;;;;5.50;4.00;;;;;21.74;44.62;102401.38;5058049;28;45333;-51
2022/11/10 20:15:19;;;;;;;;;7.00;5.50;;;;;21.74;44.77;102404.88;5058048;28;45239;-53
2022/11/10 20:17:45;;;;;;;;;5.50;5.50;;;;;21.76;44.60;102394.28;5057553;28;46030;-54
2022/11/10 20:20:10;;;;;;;;;4.25;4.25;;;;;21.72;44.45;102387.38;5057432;28;53579;-53
2022/11/10 20:22:36;;;;;;;;;6.25;5.00;;;;;21.74;44.35;102388.19;5057940;28;45250;-47
2022/11/10 20:25:02;;;;;;;;;6.00;4.25;;;;;21.73;44.70;102402.28;5058340;28;45337;-51
2022/11/10 20:27:28;;;;;;;;;8.50;6.00;;;;;21.72;44.79;102397.94;5057903;28;46372;-53
2022/11/10 20:29:54;;;;;;;;;5.25;5.00;;;;;21.68;44.40;102397.19;5058101;28;45841;-54
2022/11/10 20:32:19;;;;;;;;;5.75;5.00;;;;;21.71;44.51;102409.41;5056970;28;45524;-54
2022/11/10 20:34:44;;;;;;;;;3.50;2.25;;;;;21.72;44.56;102414.59;5057638;28;45390;-50
2022/11/10 20:37:10;;;;;;;;;3.50;3.50;;;;;21.69;44.27;102419.13;5057197;28;45597;-51
2022/11/10 20:39:35;;;;;;;;;5.00;4.00;;;;;21.69;44.41;102420.03;5055168;28;45407;-48
2022/11/10 20:42:00;;;;;;;;;5.50;4.00;;;;;21.69;44.64;102427.94;5057527;28;45311;-55
2022/11/10 20:44:26;;;;;;;;;4.00;4.00;;;;;21.69;44.27;102440.25;5057055;28;49774;-54
2022/11/10 20:46:51;;;;;;;;;6.00;6.00;;;;;21.69;44.26;102434.97;5057273;28;45969;-52
2022/11/10 20:49:16;;;;;;;;;4.25;3.50;;;;;21.67;44.52;102442.97;5061289;28;53825;-49
2022/11/10 20:51:42;;;;;;;;;5.00;5.00;;;;;21.65;44.54;102446.56;5078049;28;44737;-50
2022/11/10 20:54:08;;;;;;;;;4.00;4.00;;;;;21.65;44.33;102449.22;5059864;28;45196;-54
2022/11/10 20:56:33;;;;;;;;;4.00;4.00;;;;;21.67;44.39;102458.78;5057416;28;46021;-53
2022/11/10 20:58:58;;;;;;;;;4.00;4.00;;;;;21.64;44.63;102455.41;5057021;28;47596;-53
2022/11/10 21:01:24;;;;;;;;;7.00;5.00;;;;;21.61;44.69;102456.34;5057515;28;60453;-53
2022/11/10 21:03:50;;;;;;;;;4.50;4.50;;;;;21.58;44.33;102449.38;5064282;28;45504;-55
2022/11/10 21:06:15;;;;;;;;;5.00;5.00;;;;;21.55;44.54;102453.91;5067043;28;45320;-53
2022/11/10 21:08:41;;;;;;;;;4.00;4.00;;;;;21.50;44.64;102454.06;5071160;28;46141;-48
2022/11/10 21:11:08;;;;;;;;;4.50;4.50;;;;;21.50;44.57;102464.59;5082275;28;44812;-51
2022/11/10 21:13:34;;;;;;;;;6.00;4.75;;;;;21.49;44.54;102462.03;5077755;28;44891;-51
2022/11/10 21:16:02;;;;;;;;;4.00;3.00;;;;;21.46;44.44;102455.94;5059535;28;46088;-53
2022/11/10 21:18:32;;;;;;;;;4.00;4.00;;;;;21.45;44.47;102459.47;5057469;28;45735;-54
2022/11/10 21:20:58;;;;;;;;;5.00;5.00;;;;;21.42;44.43;102462.22;5057255;28;45490;-53
2022/11/10 21:23:23;;;;;;;;;5.00;5.00;;;;;21.41;44.48;102462.28;5057047;28;45358;-53
2022/11/10 21:25:54;;;;;;;;;5.50;5.00;;;;;21.38;44.42;102462.38;5056706;28;46155;-55
2022/11/10 21:28:19;;;;;;;;;4.00;4.00;;;;;21.37;44.64;102472.06;5057067;28;45901;-51
2022/11/10 21:30:44;;;;;;;;;3.00;3.00;;;;;21.35;44.73;102470.38;5058496;28;45228;-51
2022/11/10 21:33:10;;;;;;;;;6.75;4.25;;;;;21.33;44.58;102473.06;5066970;28;44869;-52
2022/11/10 21:35:36;;;;;;;;;3.50;3.50;;;;;21.31;44.75;102473.13;5060573;28;47006;-53
2022/11/10 21:38:02;;;;;;;;;5.75;3.50;;;;;21.29;44.64;102472.31;5056801;28;45336;-51
2022/11/10 21:40:27;;;;;;;;;4.25;4.25;;;;;21.27;44.57;102463.59;5056761;28;45459;-52
2022/11/10 21:42:54;;;;;;;;;6.25;5.00;;;;;21.26;44.73;102475.06;5055579;28;45575;-53
2022/11/10 21:45:19;;;;;;;;;4.00;4.00;;;;;21.24;44.50;102479.50;5058411;28;47207;-53
2022/11/10 21:47:45;;;;;;;;;3.50;3.50;;;;;21.22;44.40;102477.84;5056264;28;45302;-52
2022/11/10 21:50:10;;;;;;;;;5.50;4.25;;;;;21.21;44.61;102473.47;5056577;28;45452;-51
2022/11/10 21:52:36;;;;;;;;;3.00;3.00;;;;;21.19;44.74;102478.81;5057048;28;45532;-52
2022/11/10 21:55:01;;;;;;;;;3.00;3.00;;;;;21.18;44.55;102477.06;5057188;28;45350;-53
2022/11/10 21:57:26;;;;;;;;;3.25;3.00;;;;;21.17;44.88;102480.63;5057459;28;45227;-54
2022/11/10 21:59:52;;;;;;;;;5.00;5.00;;;;;21.15;44.79;102493.00;5061561;28;45219;-54
2022/11/10 22:02:17;;;;;;;;;5.00;3.25;;;;;21.14;44.71;102484.22;5059925;28;48601;-54
2022/11/10 22:04:42;;;;;;;;;5.00;4.00;;;;;21.14;44.92;102480.72;5062168;28;46006;-55
2022/11/10 22:07:23;;;;;;;;;3.00;3.00;;;;;21.13;44.77;102486.91;5068159;28;45359;-53
2022/11/10 22:21:01;;;;;;;;;3.75;2.00;;;;;21.05;44.70;102494.19;5056248;28;45419;-53
2022/11/10 22:26:10;;;;;;;;;6.00;3.25;;;;;21.05;44.97;102497.72;5060443;28;45327;-49
2022/11/10 22:28:36;;;;;;;;;6.00;4.75;;;;;21.05;44.72;102502.09;5056122;28;45365;-53
2022/11/10 22:31:03;;;;;;;;;5.00;3.00;;;;;21.04;45.16;102503.00;5054647;28;45484;-49
2022/11/10 22:33:35;;;;;;;;;5.25;4.00;;;;;21.03;44.62;102504.78;5056225;28;45312;-53
2022/11/10 22:36:03;;;;;;;;;6.50;3.00;;;;;21.03;45.04;102498.66;5054800;28;45394;-50
2022/11/10 22:38:33;;;;;;;;;4.75;4.50;;;;;21.00;44.78;102495.19;5056061;28;45419;-52
2022/11/10 22:46:27;;;;;;;;;3.00;3.00;;;;;20.98;44.66;102499.66;5056218;28;45376;-53
2022/11/10 22:48:53;;;;;;;;;4.00;4.00;;;;;20.96;44.68;102493.56;5055508;28;45410;-53
2022/11/10 22:51:18;;;;;;;;;5.00;3.00;;;;;20.96;44.80;102501.47;5054779;28;45757;-52
2022/11/10 22:53:43;;;;;;;;;3.75;3.75;;;;;20.95;44.69;102496.22;5056008;28;45675;-51
2022/11/10 22:56:09;;;;;;;;;3.00;3.00;;;;;20.94;44.88;102494.53;5059045;28;46172;-51
2022/11/10 22:58:35;;;;;;;;;6.75;3.75;;;;;20.92;44.82;102486.66;5058890;28;45560;-52
2022/11/10 23:01:08;;;;;;;;;3.25;3.25;;;;;20.94;44.45;102499.81;5058931;28;45446;-53